This is the latest recevied weather packets stored in our database for station/object E27EKO-13. If no packets are shown the sender has not sent any weather packets the latest 10 day(s).
| Time | Temp. | Humidity | Pressure | Rain* | Wind** | Luminosity | Snow |
|---|---|---|---|---|---|---|---|
| 1788141002 | 38.33° C | 55% | 1008 hPa | - | - | 0 W/m² | - |
| 1788140680 | 38.33° C | 56% | 1008 hPa | - | - | 0 W/m² | - |
| 1788140358 | 37.22° C | 57% | 1008 hPa | - | - | 0 W/m² | - |
| 1788140036 | 37.78° C | 57% | 1008 hPa | - | - | 0 W/m² | - |
| 1788139714 | 37.78° C | 57% | 1008 hPa | - | - | 0 W/m² | - |
| 1788139392 | 38.33° C | 56% | 1008 hPa | - | - | 0 W/m² | - |
| 1788139070 | 38.89° C | 54% | 1008 hPa | - | - | 0 W/m² | - |
| 1788138748 | 38.89° C | 54% | 1008 hPa | - | - | 0 W/m² | - |
| 1788138426 | 37.22° C | 59% | 1008 hPa | - | - | 0 W/m² | - |
| 1788138014 | 35° C | 65% | 1008 hPa | - | - | 0 W/m² | - |
| 1788137692 | 33.89° C | 69% | 1008 hPa | - | - | 0 W/m² | - |
| 1788137370 | 33.33° C | 71% | 1008 hPa | - | - | 0 W/m² | - |
| 1788137048 | 32.78° C | 74% | 1008 hPa | - | - | 0 W/m² | - |
| 1788136726 | 32.78° C | 75% | 1008 hPa | - | - | 0 W/m² | - |
| 1788136404 | 32.78° C | 75% | 1008 hPa | - | - | 0 W/m² | - |
| 1788136082 | 32.22° C | 75% | 1008 hPa | - | - | 0 W/m² | - |
| 1788135760 | 32.78° C | 75% | 1008 hPa | - | - | 0 W/m² | - |
| 1788135438 | 32.78° C | 75% | 1008 hPa | - | - | 0 W/m² | - |
| 1788135116 | 32.78° C | 74% | 1007 hPa | - | - | 0 W/m² | - |
| 1788134794 | 32.78° C | 74% | 1007 hPa | - | - | 0 W/m² | - |
| 1788134471 | 32.22° C | 76% | 1007 hPa | - | - | 0 W/m² | - |
| 1788134149 | 32.22° C | 78% | 1007 hPa | - | - | 0 W/m² | - |
| 1788133827 | 31.67° C | 80% | 1007 hPa | - | - | 0 W/m² | - |
| 1788133505 | 31.67° C | 80% | 1007 hPa | - | - | 0 W/m² | - |
| 1788133184 | 31.67° C | 81% | 1007 hPa | - | - | 0 W/m² | - |
* Rain since midnight (hover to see other rain measurements)
** Current wind speed in m/s (hover to see current wind gust speed)